sensor_id;sensor_type;location;lat;lon;timestamp;P1;durP1;ratioP1;P2;durP2;ratioP2
55800;SDS011;41730;51.960;20.158;2022-10-31T00:01:30;28.30;;;20.20;;
55800;SDS011;41730;51.960;20.158;2022-10-31T00:04:00;26.70;;;19.50;;
55800;SDS011;41730;51.960;20.158;2022-10-31T00:06:29;26.20;;;20.00;;
55800;SDS011;41730;51.960;20.158;2022-10-31T00:08:58;23.90;;;19.40;;
55800;SDS011;41730;51.960;20.158;2022-10-31T00:11:28;26.50;;;20.70;;
55800;SDS011;41730;51.960;20.158;2022-10-31T00:13:58;28.30;;;20.10;;
55800;SDS011;41730;51.960;20.158;2022-10-31T00:16:27;26.20;;;19.90;;
55800;SDS011;41730;51.960;20.158;2022-10-31T00:18:57;27.70;;;21.30;;
55800;SDS011;41730;51.960;20.158;2022-10-31T00:21:27;38.20;;;21.30;;
55800;SDS011;41730;51.960;20.158;2022-10-31T00:23:57;28.30;;;20.20;;
55800;SDS011;41730;51.960;20.158;2022-10-31T00:26:27;27.00;;;20.40;;
55800;SDS011;41730;51.960;20.158;2022-10-31T00:28:57;26.90;;;19.80;;
55800;SDS011;41730;51.960;20.158;2022-10-31T00:31:26;23.90;;;19.90;;
55800;SDS011;41730;51.960;20.158;2022-10-31T00:33:56;25.50;;;19.70;;
55800;SDS011;41730;51.960;20.158;2022-10-31T00:36:25;26.80;;;20.30;;
55800;SDS011;41730;51.960;20.158;2022-10-31T00:38:55;28.00;;;19.70;;
55800;SDS011;41730;51.960;20.158;2022-10-31T00:41:25;30.20;;;20.30;;
55800;SDS011;41730;51.960;20.158;2022-10-31T00:43:54;26.00;;;19.60;;
55800;SDS011;41730;51.960;20.158;2022-10-31T00:46:25;30.60;;;20.60;;
55800;SDS011;41730;51.960;20.158;2022-10-31T00:48:55;24.30;;;20.80;;
55800;SDS011;41730;51.960;20.158;2022-10-31T00:51:24;25.90;;;20.80;;
55800;SDS011;41730;51.960;20.158;2022-10-31T00:53:52;26.80;;;19.90;;
55800;SDS011;41730;51.960;20.158;2022-10-31T00:56:21;26.90;;;20.20;;
55800;SDS011;41730;51.960;20.158;2022-10-31T00:58:50;25.60;;;19.50;;
55800;SDS011;41730;51.960;20.158;2022-10-31T01:01:18;26.50;;;20.30;;
55800;SDS011;41730;51.960;20.158;2022-10-31T01:03:47;24.10;;;19.60;;
55800;SDS011;41730;51.960;20.158;2022-10-31T01:06:16;27.40;;;20.10;;
55800;SDS011;41730;51.960;20.158;2022-10-31T01:08:46;27.20;;;20.20;;
55800;SDS011;41730;51.960;20.158;2022-10-31T01:11:16;24.10;;;20.40;;
55800;SDS011;41730;51.960;20.158;2022-10-31T01:13:47;25.70;;;21.10;;
55800;SDS011;41730;51.960;20.158;2022-10-31T01:16:18;28.00;;;21.10;;
55800;SDS011;41730;51.960;20.158;2022-10-31T01:18:48;33.00;;;20.70;;
55800;SDS011;41730;51.960;20.158;2022-10-31T01:21:18;28.50;;;21.50;;
55800;SDS011;41730;51.960;20.158;2022-10-31T01:23:48;25.50;;;20.10;;
55800;SDS011;41730;51.960;20.158;2022-10-31T01:26:18;25.20;;;20.30;;
55800;SDS011;41730;51.960;20.158;2022-10-31T01:28:48;31.00;;;22.00;;
55800;SDS011;41730;51.960;20.158;2022-10-31T01:31:18;29.10;;;20.60;;
55800;SDS011;41730;51.960;20.158;2022-10-31T01:33:48;39.00;;;23.00;;
55800;SDS011;41730;51.960;20.158;2022-10-31T01:36:19;26.90;;;20.00;;
55800;SDS011;41730;51.960;20.158;2022-10-31T01:38:49;27.70;;;20.90;;
55800;SDS011;41730;51.960;20.158;2022-10-31T01:41:20;26.20;;;20.10;;
55800;SDS011;41730;51.960;20.158;2022-10-31T01:43:51;28.50;;;20.10;;
55800;SDS011;41730;51.960;20.158;2022-10-31T01:46:22;24.30;;;18.70;;
55800;SDS011;41730;51.960;20.158;2022-10-31T01:48:55;24.10;;;19.50;;
55800;SDS011;41730;51.960;20.158;2022-10-31T01:51:31;23.10;;;20.00;;
55800;SDS011;41730;51.960;20.158;2022-10-31T01:54:05;25.20;;;18.90;;
55800;SDS011;41730;51.960;20.158;2022-10-31T01:56:37;24.20;;;18.70;;
55800;SDS011;41730;51.960;20.158;2022-10-31T01:59:11;22.90;;;18.70;;
55800;SDS011;41730;51.960;20.158;2022-10-31T02:01:42;29.00;;;17.90;;
55800;SDS011;41730;51.960;20.158;2022-10-31T02:04:11;25.90;;;18.50;;
55800;SDS011;41730;51.960;20.158;2022-10-31T02:06:42;24.50;;;18.40;;
55800;SDS011;41730;51.960;20.158;2022-10-31T02:11:45;30.10;;;18.90;;
55800;SDS011;41730;51.960;20.158;2022-10-31T02:14:14;25.40;;;17.90;;
55800;SDS011;41730;51.960;20.158;2022-10-31T02:16:42;26.80;;;18.20;;
55800;SDS011;41730;51.960;20.158;2022-10-31T02:19:12;25.00;;;18.60;;
55800;SDS011;41730;51.960;20.158;2022-10-31T02:21:52;28.20;;;19.00;;
55800;SDS011;41730;51.960;20.158;2022-10-31T02:24:42;26.20;;;18.90;;
55800;SDS011;41730;51.960;20.158;2022-10-31T02:27:27;24.30;;;18.10;;
55800;SDS011;41730;51.960;20.158;2022-10-31T02:30:13;33.30;;;19.30;;
55800;SDS011;41730;51.960;20.158;2022-10-31T02:32:54;29.10;;;18.30;;
55800;SDS011;41730;51.960;20.158;2022-10-31T02:35:31;26.00;;;18.30;;
55800;SDS011;41730;51.960;20.158;2022-10-31T02:38:11;22.90;;;17.40;;
55800;SDS011;41730;51.960;20.158;2022-10-31T02:40:53;21.60;;;17.20;;
55800;SDS011;41730;51.960;20.158;2022-10-31T02:43:30;25.90;;;18.00;;
55800;SDS011;41730;51.960;20.158;2022-10-31T02:46:07;26.20;;;17.20;;
55800;SDS011;41730;51.960;20.158;2022-10-31T02:48:40;24.60;;;17.40;;
55800;SDS011;41730;51.960;20.158;2022-10-31T02:51:13;24.60;;;17.50;;
55800;SDS011;41730;51.960;20.158;2022-10-31T02:53:43;23.50;;;18.10;;
55800;SDS011;41730;51.960;20.158;2022-10-31T02:56:13;24.30;;;18.00;;
55800;SDS011;41730;51.960;20.158;2022-10-31T02:58:44;21.30;;;16.50;;
55800;SDS011;41730;51.960;20.158;2022-10-31T03:04:12;24.70;;;17.90;;
55800;SDS011;41730;51.960;20.158;2022-10-31T03:06:53;21.50;;;16.50;;
55800;SDS011;41730;51.960;20.158;2022-10-31T03:09:32;26.00;;;16.40;;
55800;SDS011;41730;51.960;20.158;2022-10-31T03:12:10;27.80;;;16.70;;
55800;SDS011;41730;51.960;20.158;2022-10-31T03:14:47;23.60;;;16.20;;
55800;SDS011;41730;51.960;20.158;2022-10-31T03:17:24;22.40;;;14.90;;
55800;SDS011;41730;51.960;20.158;2022-10-31T03:19:59;24.20;;;16.00;;
55800;SDS011;41730;51.960;20.158;2022-10-31T03:22:31;22.70;;;16.10;;
55800;SDS011;41730;51.960;20.158;2022-10-31T03:25:04;25.20;;;16.10;;
55800;SDS011;41730;51.960;20.158;2022-10-31T03:27:34;20.90;;;15.00;;
55800;SDS011;41730;51.960;20.158;2022-10-31T03:30:07;18.60;;;14.50;;
55800;SDS011;41730;51.960;20.158;2022-10-31T03:32:38;19.50;;;14.10;;
55800;SDS011;41730;51.960;20.158;2022-10-31T03:35:11;21.40;;;14.60;;
55800;SDS011;41730;51.960;20.158;2022-10-31T03:37:43;18.60;;;14.30;;
55800;SDS011;41730;51.960;20.158;2022-10-31T03:40:14;20.00;;;14.60;;
55800;SDS011;41730;51.960;20.158;2022-10-31T03:42:49;20.30;;;14.80;;
55800;SDS011;41730;51.960;20.158;2022-10-31T03:45:23;17.10;;;13.60;;
55800;SDS011;41730;51.960;20.158;2022-10-31T03:47:54;21.30;;;14.00;;
55800;SDS011;41730;51.960;20.158;2022-10-31T03:50:27;20.80;;;13.50;;
55800;SDS011;41730;51.960;20.158;2022-10-31T03:53:06;19.00;;;14.30;;
55800;SDS011;41730;51.960;20.158;2022-10-31T03:55:41;22.30;;;13.30;;
55800;SDS011;41730;51.960;20.158;2022-10-31T03:58:17;20.30;;;14.50;;
55800;SDS011;41730;51.960;20.158;2022-10-31T04:00:51;23.30;;;14.10;;
55800;SDS011;41730;51.960;20.158;2022-10-31T04:03:22;25.50;;;14.10;;
55800;SDS011;41730;51.960;20.158;2022-10-31T04:05:55;29.70;;;13.80;;
55800;SDS011;41730;51.960;20.158;2022-10-31T04:08:28;28.30;;;13.40;;
55800;SDS011;41730;51.960;20.158;2022-10-31T04:10:59;25.30;;;13.80;;
55800;SDS011;41730;51.960;20.158;2022-10-31T04:13:31;27.70;;;14.30;;
55800;SDS011;41730;51.960;20.158;2022-10-31T04:16:05;29.80;;;13.50;;
55800;SDS011;41730;51.960;20.158;2022-10-31T04:18:42;25.40;;;13.70;;
55800;SDS011;41730;51.960;20.158;2022-10-31T04:21:11;20.10;;;13.40;;
55800;SDS011;41730;51.960;20.158;2022-10-31T04:23:41;29.90;;;13.50;;
55800;SDS011;41730;51.960;20.158;2022-10-31T04:26:11;24.90;;;14.10;;
55800;SDS011;41730;51.960;20.158;2022-10-31T04:28:40;28.20;;;14.10;;
55800;SDS011;41730;51.960;20.158;2022-10-31T04:31:11;18.00;;;13.70;;
55800;SDS011;41730;51.960;20.158;2022-10-31T04:33:45;22.70;;;13.90;;
55800;SDS011;41730;51.960;20.158;2022-10-31T04:36:17;31.30;;;13.10;;
55800;SDS011;41730;51.960;20.158;2022-10-31T04:38:46;21.30;;;14.20;;
55800;SDS011;41730;51.960;20.158;2022-10-31T04:41:15;22.90;;;14.00;;
55800;SDS011;41730;51.960;20.158;2022-10-31T04:43:44;19.00;;;14.10;;
55800;SDS011;41730;51.960;20.158;2022-10-31T04:46:13;22.40;;;12.20;;
55800;SDS011;41730;51.960;20.158;2022-10-31T04:48:42;27.00;;;12.50;;
55800;SDS011;41730;51.960;20.158;2022-10-31T04:51:11;23.30;;;13.10;;
55800;SDS011;41730;51.960;20.158;2022-10-31T04:53:39;21.60;;;13.00;;
55800;SDS011;41730;51.960;20.158;2022-10-31T04:56:08;32.20;;;13.60;;
55800;SDS011;41730;51.960;20.158;2022-10-31T04:58:37;28.20;;;13.60;;
55800;SDS011;41730;51.960;20.158;2022-10-31T05:01:05;36.10;;;13.50;;
55800;SDS011;41730;51.960;20.158;2022-10-31T05:03:34;30.30;;;13.60;;
55800;SDS011;41730;51.960;20.158;2022-10-31T05:06:03;45.50;;;15.00;;
55800;SDS011;41730;51.960;20.158;2022-10-31T05:08:32;37.10;;;13.80;;
55800;SDS011;41730;51.960;20.158;2022-10-31T05:11:01;43.10;;;16.20;;
55800;SDS011;41730;51.960;20.158;2022-10-31T05:13:31;33.20;;;14.60;;
55800;SDS011;41730;51.960;20.158;2022-10-31T05:15:59;43.20;;;15.00;;
55800;SDS011;41730;51.960;20.158;2022-10-31T05:18:28;29.40;;;15.90;;
55800;SDS011;41730;51.960;20.158;2022-10-31T05:20:57;26.40;;;13.90;;
55800;SDS011;41730;51.960;20.158;2022-10-31T05:23:25;31.90;;;14.70;;
55800;SDS011;41730;51.960;20.158;2022-10-31T05:25:55;38.70;;;16.20;;
55800;SDS011;41730;51.960;20.158;2022-10-31T05:28:23;46.60;;;16.00;;
55800;SDS011;41730;51.960;20.158;2022-10-31T05:30:52;50.20;;;17.50;;
55800;SDS011;41730;51.960;20.158;2022-10-31T05:33:21;45.40;;;15.90;;
55800;SDS011;41730;51.960;20.158;2022-10-31T05:35:50;48.50;;;17.30;;
55800;SDS011;41730;51.960;20.158;2022-10-31T05:38:18;55.50;;;18.80;;
55800;SDS011;41730;51.960;20.158;2022-10-31T05:40:47;58.30;;;21.80;;
55800;SDS011;41730;51.960;20.158;2022-10-31T05:43:16;78.80;;;23.60;;
55800;SDS011;41730;51.960;20.158;2022-10-31T05:45:44;50.60;;;20.70;;
55800;SDS011;41730;51.960;20.158;2022-10-31T05:48:14;50.40;;;18.50;;
55800;SDS011;41730;51.960;20.158;2022-10-31T05:50:42;52.30;;;18.80;;
55800;SDS011;41730;51.960;20.158;2022-10-31T05:53:11;51.40;;;19.30;;
55800;SDS011;41730;51.960;20.158;2022-10-31T05:55:40;50.70;;;20.20;;
55800;SDS011;41730;51.960;20.158;2022-10-31T05:58:09;54.40;;;21.30;;
55800;SDS011;41730;51.960;20.158;2022-10-31T06:00:38;48.40;;;19.40;;
55800;SDS011;41730;51.960;20.158;2022-10-31T06:03:07;42.60;;;20.00;;
55800;SDS011;41730;51.960;20.158;2022-10-31T06:05:37;51.60;;;19.30;;
55800;SDS011;41730;51.960;20.158;2022-10-31T06:08:05;44.00;;;18.80;;
55800;SDS011;41730;51.960;20.158;2022-10-31T06:10:34;55.80;;;19.20;;
55800;SDS011;41730;51.960;20.158;2022-10-31T06:13:03;38.70;;;18.00;;
55800;SDS011;41730;51.960;20.158;2022-10-31T06:15:33;55.40;;;18.10;;
55800;SDS011;41730;51.960;20.158;2022-10-31T06:18:02;54.30;;;18.60;;
55800;SDS011;41730;51.960;20.158;2022-10-31T06:20:32;46.80;;;20.60;;
55800;SDS011;41730;51.960;20.158;2022-10-31T06:23:01;59.40;;;19.60;;
55800;SDS011;41730;51.960;20.158;2022-10-31T06:25:31;53.20;;;19.40;;
55800;SDS011;41730;51.960;20.158;2022-10-31T06:28:00;58.90;;;19.60;;
55800;SDS011;41730;51.960;20.158;2022-10-31T06:30:29;52.30;;;20.30;;
55800;SDS011;41730;51.960;20.158;2022-10-31T06:33:02;57.80;;;20.10;;
55800;SDS011;41730;51.960;20.158;2022-10-31T06:35:31;52.30;;;20.60;;
55800;SDS011;41730;51.960;20.158;2022-10-31T06:38:00;46.40;;;21.20;;
55800;SDS011;41730;51.960;20.158;2022-10-31T06:40:30;48.10;;;21.00;;
55800;SDS011;41730;51.960;20.158;2022-10-31T06:42:59;51.30;;;21.30;;
55800;SDS011;41730;51.960;20.158;2022-10-31T06:45:28;53.20;;;22.50;;
55800;SDS011;41730;51.960;20.158;2022-10-31T06:47:57;57.70;;;21.80;;
55800;SDS011;41730;51.960;20.158;2022-10-31T06:50:44;47.40;;;21.80;;
55800;SDS011;41730;51.960;20.158;2022-10-31T06:53:13;50.00;;;21.50;;
55800;SDS011;41730;51.960;20.158;2022-10-31T06:55:42;47.30;;;22.40;;
55800;SDS011;41730;51.960;20.158;2022-10-31T06:58:11;45.30;;;20.10;;
55800;SDS011;41730;51.960;20.158;2022-10-31T07:00:39;38.90;;;22.40;;
55800;SDS011;41730;51.960;20.158;2022-10-31T07:03:10;36.20;;;21.30;;
55800;SDS011;41730;51.960;20.158;2022-10-31T07:05:40;35.10;;;22.20;;
55800;SDS011;41730;51.960;20.158;2022-10-31T07:08:09;39.60;;;21.50;;
55800;SDS011;41730;51.960;20.158;2022-10-31T07:10:40;39.80;;;21.40;;
55800;SDS011;41730;51.960;20.158;2022-10-31T07:13:11;46.20;;;22.70;;
55800;SDS011;41730;51.960;20.158;2022-10-31T07:15:42;42.50;;;22.20;;
55800;SDS011;41730;51.960;20.158;2022-10-31T07:18:11;39.90;;;21.10;;
55800;SDS011;41730;51.960;20.158;2022-10-31T07:20:40;45.40;;;21.10;;
55800;SDS011;41730;51.960;20.158;2022-10-31T07:23:09;37.10;;;20.90;;
55800;SDS011;41730;51.960;20.158;2022-10-31T07:25:39;41.30;;;20.90;;
55800;SDS011;41730;51.960;20.158;2022-10-31T07:28:08;48.30;;;20.40;;
55800;SDS011;41730;51.960;20.158;2022-10-31T07:30:37;34.90;;;18.90;;
55800;SDS011;41730;51.960;20.158;2022-10-31T07:33:06;33.10;;;20.40;;
55800;SDS011;41730;51.960;20.158;2022-10-31T07:35:36;31.90;;;19.30;;
55800;SDS011;41730;51.960;20.158;2022-10-31T07:38:07;36.00;;;18.60;;
55800;SDS011;41730;51.960;20.158;2022-10-31T07:40:37;23.70;;;18.00;;
55800;SDS011;41730;51.960;20.158;2022-10-31T07:43:07;24.40;;;17.60;;
55800;SDS011;41730;51.960;20.158;2022-10-31T07:45:41;32.20;;;20.30;;
55800;SDS011;41730;51.960;20.158;2022-10-31T07:48:10;31.20;;;19.20;;
55800;SDS011;41730;51.960;20.158;2022-10-31T07:50:39;34.50;;;20.40;;
55800;SDS011;41730;51.960;20.158;2022-10-31T07:53:08;31.30;;;21.10;;
55800;SDS011;41730;51.960;20.158;2022-10-31T07:55:39;32.20;;;19.90;;
55800;SDS011;41730;51.960;20.158;2022-10-31T07:58:09;34.80;;;20.40;;
55800;SDS011;41730;51.960;20.158;2022-10-31T08:00:40;39.40;;;21.80;;
55800;SDS011;41730;51.960;20.158;2022-10-31T08:03:10;31.20;;;22.30;;
55800;SDS011;41730;51.960;20.158;2022-10-31T08:05:41;31.30;;;22.50;;
55800;SDS011;41730;51.960;20.158;2022-10-31T08:08:12;32.40;;;23.40;;
55800;SDS011;41730;51.960;20.158;2022-10-31T08:10:41;35.00;;;22.70;;
55800;SDS011;41730;51.960;20.158;2022-10-31T08:13:11;34.90;;;24.60;;
55800;SDS011;41730;51.960;20.158;2022-10-31T08:15:41;33.60;;;25.50;;
55800;SDS011;41730;51.960;20.158;2022-10-31T08:18:12;37.40;;;25.60;;
55800;SDS011;41730;51.960;20.158;2022-10-31T08:20:42;33.80;;;24.70;;
55800;SDS011;41730;51.960;20.158;2022-10-31T08:23:11;30.90;;;25.20;;
55800;SDS011;41730;51.960;20.158;2022-10-31T08:25:41;38.30;;;26.00;;
55800;SDS011;41730;51.960;20.158;2022-10-31T08:28:10;37.70;;;25.00;;
55800;SDS011;41730;51.960;20.158;2022-10-31T08:30:39;40.70;;;24.20;;
55800;SDS011;41730;51.960;20.158;2022-10-31T08:33:09;32.90;;;24.20;;
55800;SDS011;41730;51.960;20.158;2022-10-31T08:35:39;45.30;;;24.70;;
55800;SDS011;41730;51.960;20.158;2022-10-31T08:38:09;35.10;;;25.20;;
55800;SDS011;41730;51.960;20.158;2022-10-31T08:40:38;39.10;;;25.60;;
55800;SDS011;41730;51.960;20.158;2022-10-31T08:43:08;36.70;;;26.50;;
55800;SDS011;41730;51.960;20.158;2022-10-31T08:45:39;37.70;;;26.10;;
55800;SDS011;41730;51.960;20.158;2022-10-31T08:48:10;37.10;;;26.60;;
55800;SDS011;41730;51.960;20.158;2022-10-31T08:50:41;37.60;;;25.90;;
55800;SDS011;41730;51.960;20.158;2022-10-31T08:53:11;39.40;;;25.70;;
55800;SDS011;41730;51.960;20.158;2022-10-31T08:55:41;35.20;;;26.30;;
55800;SDS011;41730;51.960;20.158;2022-10-31T08:58:12;36.60;;;25.90;;
55800;SDS011;41730;51.960;20.158;2022-10-31T09:00:42;36.50;;;26.00;;
55800;SDS011;41730;51.960;20.158;2022-10-31T09:03:12;32.80;;;25.80;;
55800;SDS011;41730;51.960;20.158;2022-10-31T09:05:44;33.10;;;25.50;;
55800;SDS011;41730;51.960;20.158;2022-10-31T09:08:13;36.00;;;25.50;;
55800;SDS011;41730;51.960;20.158;2022-10-31T09:10:43;41.80;;;26.60;;
55800;SDS011;41730;51.960;20.158;2022-10-31T09:13:13;36.40;;;25.10;;
55800;SDS011;41730;51.960;20.158;2022-10-31T09:15:44;41.50;;;24.90;;
55800;SDS011;41730;51.960;20.158;2022-10-31T09:18:14;47.30;;;26.80;;
55800;SDS011;41730;51.960;20.158;2022-10-31T09:20:44;48.00;;;28.40;;
55800;SDS011;41730;51.960;20.158;2022-10-31T09:23:15;51.60;;;29.80;;
55800;SDS011;41730;51.960;20.158;2022-10-31T09:25:46;49.70;;;27.10;;
55800;SDS011;41730;51.960;20.158;2022-10-31T09:28:18;41.30;;;26.90;;
55800;SDS011;41730;51.960;20.158;2022-10-31T09:30:48;43.80;;;27.90;;
55800;SDS011;41730;51.960;20.158;2022-10-31T09:33:18;45.10;;;28.70;;
55800;SDS011;41730;51.960;20.158;2022-10-31T09:35:47;38.40;;;28.60;;
55800;SDS011;41730;51.960;20.158;2022-10-31T09:38:20;41.60;;;29.00;;
55800;SDS011;41730;51.960;20.158;2022-10-31T09:40:51;40.70;;;28.50;;
55800;SDS011;41730;51.960;20.158;2022-10-31T09:43:28;38.40;;;27.40;;
55800;SDS011;41730;51.960;20.158;2022-10-31T09:46:07;39.10;;;29.30;;
55800;SDS011;41730;51.960;20.158;2022-10-31T09:48:42;39.90;;;28.80;;
55800;SDS011;41730;51.960;20.158;2022-10-31T09:51:20;40.80;;;28.60;;
55800;SDS011;41730;51.960;20.158;2022-10-31T09:53:54;47.40;;;30.10;;
55800;SDS011;41730;51.960;20.158;2022-10-31T09:56:30;56.30;;;31.50;;
55800;SDS011;41730;51.960;20.158;2022-10-31T09:59:00;56.10;;;29.90;;
55800;SDS011;41730;51.960;20.158;2022-10-31T10:01:32;50.10;;;33.30;;
55800;SDS011;41730;51.960;20.158;2022-10-31T10:04:13;48.30;;;33.30;;
55800;SDS011;41730;51.960;20.158;2022-10-31T10:06:55;49.10;;;31.00;;
55800;SDS011;41730;51.960;20.158;2022-10-31T10:09:26;53.10;;;31.80;;
55800;SDS011;41730;51.960;20.158;2022-10-31T10:11:58;48.30;;;33.40;;
55800;SDS011;41730;51.960;20.158;2022-10-31T10:14:41;42.90;;;30.50;;
55800;SDS011;41730;51.960;20.158;2022-10-31T10:17:22;47.50;;;31.40;;
55800;SDS011;41730;51.960;20.158;2022-10-31T10:20:07;45.60;;;32.30;;
55800;SDS011;41730;51.960;20.158;2022-10-31T10:22:47;44.30;;;31.50;;
55800;SDS011;41730;51.960;20.158;2022-10-31T10:25:22;43.20;;;31.50;;
55800;SDS011;41730;51.960;20.158;2022-10-31T10:28:02;48.60;;;32.80;;
55800;SDS011;41730;51.960;20.158;2022-10-31T10:30:39;45.20;;;32.80;;
55800;SDS011;41730;51.960;20.158;2022-10-31T10:33:12;42.70;;;32.50;;
55800;SDS011;41730;51.960;20.158;2022-10-31T10:35:43;42.90;;;31.70;;
55800;SDS011;41730;51.960;20.158;2022-10-31T10:38:18;40.50;;;30.20;;
55800;SDS011;41730;51.960;20.158;2022-10-31T10:40:52;42.80;;;31.40;;
55800;SDS011;41730;51.960;20.158;2022-10-31T10:43:23;46.50;;;33.00;;
55800;SDS011;41730;51.960;20.158;2022-10-31T10:46:00;41.20;;;31.30;;
55800;SDS011;41730;51.960;20.158;2022-10-31T10:49:02;45.50;;;32.80;;
55800;SDS011;41730;51.960;20.158;2022-10-31T10:51:42;43.10;;;32.40;;
55800;SDS011;41730;51.960;20.158;2022-10-31T10:54:42;50.10;;;33.50;;
55800;SDS011;41730;51.960;20.158;2022-10-31T10:57:22;45.20;;;33.10;;
55800;SDS011;41730;51.960;20.158;2022-10-31T11:00:00;40.70;;;30.40;;
55800;SDS011;41730;51.960;20.158;2022-10-31T11:02:46;49.80;;;32.60;;
55800;SDS011;41730;51.960;20.158;2022-10-31T11:05:20;49.10;;;32.80;;
55800;SDS011;41730;51.960;20.158;2022-10-31T11:07:53;54.00;;;32.70;;
55800;SDS011;41730;51.960;20.158;2022-10-31T11:10:21;40.80;;;32.60;;
55800;SDS011;41730;51.960;20.158;2022-10-31T11:13:19;53.20;;;33.80;;
55800;SDS011;41730;51.960;20.158;2022-10-31T11:15:51;47.00;;;33.90;;
55800;SDS011;41730;51.960;20.158;2022-10-31T11:18:24;52.00;;;32.80;;
55800;SDS011;41730;51.960;20.158;2022-10-31T11:20:56;43.20;;;31.80;;
55800;SDS011;41730;51.960;20.158;2022-10-31T11:23:26;46.40;;;36.00;;
55800;SDS011;41730;51.960;20.158;2022-10-31T11:25:56;48.30;;;35.60;;
55800;SDS011;41730;51.960;20.158;2022-10-31T11:28:27;49.90;;;36.10;;
55800;SDS011;41730;51.960;20.158;2022-10-31T11:30:59;49.60;;;34.00;;
55800;SDS011;41730;51.960;20.158;2022-10-31T11:33:34;48.70;;;35.70;;
55800;SDS011;41730;51.960;20.158;2022-10-31T11:36:13;55.10;;;37.10;;
55800;SDS011;41730;51.960;20.158;2022-10-31T11:38:47;47.50;;;35.70;;
55800;SDS011;41730;51.960;20.158;2022-10-31T11:41:17;46.50;;;33.80;;
55800;SDS011;41730;51.960;20.158;2022-10-31T11:43:53;51.10;;;37.70;;
55800;SDS011;41730;51.960;20.158;2022-10-31T11:46:26;52.60;;;37.00;;
55800;SDS011;41730;51.960;20.158;2022-10-31T11:49:00;51.30;;;36.60;;
55800;SDS011;41730;51.960;20.158;2022-10-31T11:51:31;53.30;;;35.40;;
55800;SDS011;41730;51.960;20.158;2022-10-31T11:54:02;46.50;;;34.30;;
55800;SDS011;41730;51.960;20.158;2022-10-31T11:56:39;54.90;;;34.00;;
55800;SDS011;41730;51.960;20.158;2022-10-31T11:59:21;50.80;;;35.00;;
55800;SDS011;41730;51.960;20.158;2022-10-31T12:01:53;51.10;;;35.00;;
55800;SDS011;41730;51.960;20.158;2022-10-31T12:04:26;45.60;;;34.20;;
55800;SDS011;41730;51.960;20.158;2022-10-31T12:06:59;48.10;;;33.80;;
55800;SDS011;41730;51.960;20.158;2022-10-31T12:09:28;52.60;;;35.20;;
55800;SDS011;41730;51.960;20.158;2022-10-31T12:12:12;49.40;;;36.10;;
55800;SDS011;41730;51.960;20.158;2022-10-31T12:14:55;49.40;;;33.20;;
55800;SDS011;41730;51.960;20.158;2022-10-31T12:17:36;47.30;;;34.60;;
55800;SDS011;41730;51.960;20.158;2022-10-31T12:20:16;56.90;;;36.60;;
55800;SDS011;41730;51.960;20.158;2022-10-31T12:22:55;56.50;;;34.50;;
55800;SDS011;41730;51.960;20.158;2022-10-31T12:25:36;48.50;;;34.70;;
55800;SDS011;41730;51.960;20.158;2022-10-31T12:28:18;50.00;;;35.10;;
55800;SDS011;41730;51.960;20.158;2022-10-31T12:31:15;50.80;;;35.30;;
55800;SDS011;41730;51.960;20.158;2022-10-31T12:33:57;55.70;;;35.90;;
55800;SDS011;41730;51.960;20.158;2022-10-31T12:36:44;51.60;;;36.70;;
55800;SDS011;41730;51.960;20.158;2022-10-31T12:39:24;47.20;;;33.40;;
55800;SDS011;41730;51.960;20.158;2022-10-31T12:41:59;51.50;;;36.50;;
55800;SDS011;41730;51.960;20.158;2022-10-31T12:44:40;53.50;;;36.70;;
55800;SDS011;41730;51.960;20.158;2022-10-31T12:47:38;52.80;;;35.80;;
55800;SDS011;41730;51.960;20.158;2022-10-31T12:50:22;55.40;;;36.60;;
55800;SDS011;41730;51.960;20.158;2022-10-31T12:53:04;53.30;;;36.40;;
55800;SDS011;41730;51.960;20.158;2022-10-31T12:55:51;59.90;;;36.60;;
55800;SDS011;41730;51.960;20.158;2022-10-31T12:58:29;54.30;;;36.60;;
55800;SDS011;41730;51.960;20.158;2022-10-31T13:01:04;52.10;;;37.30;;
55800;SDS011;41730;51.960;20.158;2022-10-31T13:03:41;56.30;;;36.50;;
55800;SDS011;41730;51.960;20.158;2022-10-31T13:06:18;59.80;;;37.50;;
55800;SDS011;41730;51.960;20.158;2022-10-31T13:08:50;60.20;;;37.30;;
55800;SDS011;41730;51.960;20.158;2022-10-31T13:11:23;55.70;;;37.30;;
55800;SDS011;41730;51.960;20.158;2022-10-31T13:13:56;54.20;;;37.90;;
55800;SDS011;41730;51.960;20.158;2022-10-31T13:16:30;59.80;;;38.90;;
55800;SDS011;41730;51.960;20.158;2022-10-31T13:19:05;59.70;;;41.10;;
55800;SDS011;41730;51.960;20.158;2022-10-31T13:21:41;61.00;;;41.30;;
55800;SDS011;41730;51.960;20.158;2022-10-31T13:24:20;59.80;;;41.30;;
55800;SDS011;41730;51.960;20.158;2022-10-31T13:26:56;64.50;;;38.90;;
55800;SDS011;41730;51.960;20.158;2022-10-31T13:29:29;69.90;;;41.40;;
55800;SDS011;41730;51.960;20.158;2022-10-31T13:32:03;64.20;;;40.50;;
55800;SDS011;41730;51.960;20.158;2022-10-31T13:34:34;62.20;;;41.00;;
55800;SDS011;41730;51.960;20.158;2022-10-31T13:37:09;68.20;;;43.00;;
55800;SDS011;41730;51.960;20.158;2022-10-31T13:39:50;74.60;;;44.40;;
55800;SDS011;41730;51.960;20.158;2022-10-31T13:42:41;69.70;;;41.90;;
55800;SDS011;41730;51.960;20.158;2022-10-31T13:45:25;61.90;;;40.10;;
55800;SDS011;41730;51.960;20.158;2022-10-31T13:47:55;66.90;;;40.00;;
55800;SDS011;41730;51.960;20.158;2022-10-31T13:50:27;67.10;;;40.70;;
55800;SDS011;41730;51.960;20.158;2022-10-31T13:53:13;66.50;;;39.60;;
55800;SDS011;41730;51.960;20.158;2022-10-31T13:55:47;64.50;;;39.90;;
55800;SDS011;41730;51.960;20.158;2022-10-31T13:58:21;67.00;;;42.70;;
55800;SDS011;41730;51.960;20.158;2022-10-31T14:01:05;75.70;;;43.40;;
55800;SDS011;41730;51.960;20.158;2022-10-31T14:03:43;76.90;;;44.70;;
55800;SDS011;41730;51.960;20.158;2022-10-31T14:06:38;75.90;;;44.60;;
55800;SDS011;41730;51.960;20.158;2022-10-31T14:12:06;76.30;;;41.70;;
55800;SDS011;41730;51.960;20.158;2022-10-31T14:14:49;74.70;;;43.50;;
55800;SDS011;41730;51.960;20.158;2022-10-31T14:17:23;74.90;;;44.20;;
55800;SDS011;41730;51.960;20.158;2022-10-31T14:20:00;83.80;;;43.10;;
55800;SDS011;41730;51.960;20.158;2022-10-31T14:22:43;86.00;;;45.90;;
55800;SDS011;41730;51.960;20.158;2022-10-31T14:25:27;82.40;;;45.20;;
55800;SDS011;41730;51.960;20.158;2022-10-31T14:27:58;82.60;;;45.80;;
55800;SDS011;41730;51.960;20.158;2022-10-31T14:30:29;73.90;;;43.80;;
55800;SDS011;41730;51.960;20.158;2022-10-31T14:32:59;71.90;;;43.80;;
55800;SDS011;41730;51.960;20.158;2022-10-31T14:35:33;71.10;;;44.60;;
55800;SDS011;41730;51.960;20.158;2022-10-31T14:38:18;79.20;;;44.40;;
55800;SDS011;41730;51.960;20.158;2022-10-31T14:41:15;72.60;;;45.10;;
55800;SDS011;41730;51.960;20.158;2022-10-31T14:44:21;66.30;;;40.40;;
55800;SDS011;41730;51.960;20.158;2022-10-31T14:49:44;62.40;;;39.70;;
55800;SDS011;41730;51.960;20.158;2022-10-31T14:52:30;63.20;;;41.00;;
55800;SDS011;41730;51.960;20.158;2022-10-31T14:54:59;66.10;;;42.10;;